Time;durP1;ratioP1;P1;durP2;ratioP2;P2;SDS_P1;SDS_P2;PMS_P1;PMS_P2;Temp;Humidity;BMP_temperature;BMP_pressure;BME280_temperature;BME280_humidity;BME280_pressure;Samples;Min_cycle;Max_cycle;Signal;HPM_P1;HPM_P2
2022/10/10 00:01:04;;;;;;;6.00;2.55;;;10.30;99.90;;;;;;4979016;28;20046;-69
2022/10/10 00:03:30;;;;;;;6.70;2.72;;;10.30;99.90;;;;;;4979004;28;20053;-69
2022/10/10 00:05:55;;;;;;;5.93;2.60;;;10.30;99.90;;;;;;4978972;28;20050;-69
2022/10/10 00:08:21;;;;;;;5.82;2.75;;;10.30;99.90;;;;;;4978768;28;20042;-69
2022/10/10 00:10:47;;;;;;;5.13;2.58;;;10.30;99.90;;;;;;4979132;28;20035;-69
2022/10/10 00:13:13;;;;;;;8.30;2.78;;;10.20;99.90;;;;;;4978825;28;20089;-69
2022/10/10 00:15:39;;;;;;;4.65;2.40;;;10.20;99.90;;;;;;4979029;28;20089;-69
2022/10/10 00:18:05;;;;;;;6.95;2.33;;;10.20;99.90;;;;;;4978810;28;20400;-69
2022/10/10 00:20:31;;;;;;;5.90;2.60;;;10.20;99.90;;;;;;4996080;28;20511;-69
2022/10/10 00:22:57;;;;;;;6.70;2.42;;;10.20;99.90;;;;;;4996653;28;20061;-69
2022/10/10 00:25:22;;;;;;;7.43;2.20;;;10.20;99.90;;;;;;4978589;28;20515;-69
2022/10/10 00:27:48;;;;;;;7.18;3.03;;;10.10;99.90;;;;;;4962397;28;20030;-69
2022/10/10 00:30:13;;;;;;;5.93;2.67;;;10.00;99.90;;;;;;4978470;28;20049;-69
2022/10/10 00:32:39;;;;;;;6.47;2.70;;;10.00;99.90;;;;;;4978472;28;20046;-69
2022/10/10 00:35:05;;;;;;;4.72;2.47;;;10.00;99.90;;;;;;4978442;28;20038;-69
2022/10/10 00:37:31;;;;;;;8.02;2.80;;;10.00;99.90;;;;;;4978329;28;20080;-69
2022/10/10 00:39:56;;;;;;;9.02;2.55;;;9.90;99.90;;;;;;4978376;28;20078;-69
2022/10/10 00:42:22;;;;;;;5.78;3.22;;;9.90;99.90;;;;;;4978273;28;20092;-69
2022/10/10 00:45:19;;;;;;;7.03;2.60;;;9.90;99.90;;;;;;4978502;28;20125;-69
2022/10/10 00:47:47;;;;;;;4.70;2.63;;;9.90;99.90;;;;;;4978034;28;20129;-69
2022/10/10 00:50:13;;;;;;;4.18;2.50;;;9.80;99.90;;;;;;4978083;28;20042;-68
2022/10/10 00:52:38;;;;;;;6.63;2.58;;;9.80;99.90;;;;;;4995533;28;20121;-68
2022/10/10 00:55:05;;;;;;;6.35;2.35;;;9.80;99.90;;;;;;4978369;28;20399;-68
2022/10/10 00:57:30;;;;;;;7.95;2.75;;;9.80;99.90;;;;;;4977976;28;20046;-69
2022/10/10 00:59:57;;;;;;;4.78;2.38;;;9.80;99.90;;;;;;4977998;28;20050;-69
2022/10/10 01:02:23;;;;;;;5.45;2.45;;;9.80;99.90;;;;;;4977985;28;20050;-69
2022/10/10 01:04:49;;;;;;;8.35;2.53;;;9.80;99.90;;;;;;4977911;28;20418;-69
2022/10/10 01:07:26;;;;;;;4.13;2.42;;;9.80;99.90;;;;;;4977767;28;20035;-69
2022/10/10 01:09:57;;;;;;;4.22;2.70;;;9.80;99.90;;;;;;4977809;28;20121;-69
2022/10/10 01:12:39;;;;;;;8.48;2.70;;;9.80;99.90;;;;;;4977754;28;20046;-69
2022/10/10 01:15:37;;;;;;;6.25;2.97;;;9.80;99.90;;;;;;4977648;28;20122;-69
2022/10/10 01:18:25;;;;;;;5.47;2.63;;;9.80;99.90;;;;;;4977464;28;20525;-69
2022/10/10 01:21:14;;;;;;;6.35;2.78;;;9.80;99.90;;;;;;4977614;28;20043;-68
2022/10/10 01:24:03;;;;;;;5.93;2.55;;;9.80;99.90;;;;;;4977466;28;20034;-69
2022/10/10 01:27:10;;;;;;;5.50;2.70;;;9.80;99.90;;;;;;4977530;28;20038;-69
2022/10/10 01:29:47;;;;;;;5.68;2.80;;;9.80;99.90;;;;;;4935376;28;20089;-69
2022/10/10 01:32:25;;;;;;;5.07;2.72;;;9.70;99.90;;;;;;4977392;28;20042;-69
2022/10/10 01:35:18;;;;;;;6.15;2.72;;;9.80;99.90;;;;;;4977611;28;20054;-69
2022/10/10 01:38:00;;;;;;;5.22;3.13;;;9.80;99.90;;;;;;4977906;28;20483;-69
2022/10/10 01:40:32;;;;;;;5.65;2.70;;;9.70;99.90;;;;;;4977479;28;20515;-69
2022/10/10 01:43:02;;;;;;;5.05;2.53;;;9.70;99.90;;;;;;4977247;28;20084;-69
2022/10/10 01:45:30;;;;;;;5.20;2.40;;;9.70;99.90;;;;;;4977087;28;20169;-69
2022/10/10 01:48:00;;;;;;;6.25;2.47;;;9.70;99.90;;;;;;4977065;28;20074;-68
2022/10/10 01:50:26;;;;;;;5.63;2.95;;;9.70;99.90;;;;;;4961017;28;20518;-68
2022/10/10 01:53:17;;;;;;;6.25;2.70;;;9.70;99.90;;;;;;4977224;28;20038;-69
2022/10/10 01:55:54;;;;;;;5.25;3.00;;;9.70;99.90;;;;;;4977053;28;20042;-69
2022/10/10 01:58:56;;;;;;;8.23;3.22;;;9.70;99.90;;;;;;4977101;28;20046;-69
2022/10/10 02:01:32;;;;;;;5.47;2.65;;;9.70;99.90;;;;;;4976843;28;20050;-69
2022/10/10 02:04:31;;;;;;;5.63;2.75;;;9.60;99.90;;;;;;4977147;28;20038;-69
2022/10/10 02:07:05;;;;;;;6.82;2.80;;;9.60;99.90;;;;;;4899459;29;20056;-69
2022/10/10 02:09:36;;;;;;;5.32;2.83;;;9.60;99.90;;;;;;4899487;29;20158;-69
2022/10/10 02:12:03;;;;;;;8.40;2.90;;;9.50;99.90;;;;;;4915041;29;20040;-69
2022/10/10 02:14:39;;;;;;;6.10;2.70;;;9.50;99.90;;;;;;4899629;29;20071;-69
2022/10/10 02:17:09;;;;;;;5.47;3.22;;;9.50;99.90;;;;;;4899287;29;20106;-68
2022/10/10 02:19:36;;;;;;;7.35;3.20;;;9.50;99.90;;;;;;4915232;29;20409;-68
2022/10/10 02:22:03;;;;;;;6.05;2.85;;;9.50;99.90;;;;;;4883679;29;20497;-68
2022/10/10 02:24:29;;;;;;;5.20;3.15;;;9.40;99.90;;;;;;4900371;29;20047;-68
2022/10/10 02:27:00;;;;;;;9.27;2.92;;;9.40;99.90;;;;;;4899121;29;20581;-68
2022/10/10 02:29:30;;;;;;;8.43;3.40;;;9.40;99.90;;;;;;4899324;29;20056;-68
2022/10/10 02:32:15;;;;;;;5.60;3.42;;;9.40;99.90;;;;;;4899455;29;20052;-68
2022/10/10 02:34:48;;;;;;;6.82;3.35;;;9.50;99.90;;;;;;4899447;29;20446;-68
2022/10/10 02:37:15;;;;;;;7.88;3.20;;;9.40;99.90;;;;;;4915379;29;20071;-68
2022/10/10 02:39:47;;;;;;;9.18;3.55;;;9.40;99.90;;;;;;4899095;29;20074;-68
2022/10/10 02:42:16;;;;;;;7.80;3.40;;;9.40;99.90;;;;;;4929016;28;20050;-68
2022/10/10 02:44:43;;;;;;;7.13;3.00;;;9.40;99.90;;;;;;4976574;28;20065;-68
2022/10/10 02:47:09;;;;;;;8.27;4.20;;;9.40;99.90;;;;;;4976279;28;20038;-68
2022/10/10 02:49:34;;;;;;;8.43;3.42;;;9.40;99.90;;;;;;4976357;28;20070;-68
2022/10/10 02:52:00;;;;;;;6.80;3.47;;;9.40;99.90;;;;;;4976539;28;20487;-69
2022/10/10 02:54:26;;;;;;;7.90;4.20;;;9.40;99.90;;;;;;4976267;28;20042;-69
2022/10/10 02:56:52;;;;;;;6.50;3.65;;;9.30;99.90;;;;;;4976109;28;20078;-69
2022/10/10 02:59:18;;;;;;;6.45;3.40;;;9.30;99.90;;;;;;4976236;28;20038;-68
2022/10/10 03:01:43;;;;;;;6.60;3.22;;;9.30;99.90;;;;;;4976192;28;20042;-68
2022/10/10 03:04:10;;;;;;;7.13;3.40;;;9.30;99.90;;;;;;4976135;28;20086;-69
2022/10/10 03:06:35;;;;;;;5.82;3.45;;;9.30;99.90;;;;;;4976076;28;20042;-68
2022/10/10 03:09:02;;;;;;;7.10;3.45;;;9.30;99.90;;;;;;4959907;28;20042;-68
2022/10/10 03:11:27;;;;;;;5.25;3.08;;;9.30;99.90;;;;;;4976015;28;20396;-68
2022/10/10 03:13:53;;;;;;;6.40;3.88;;;9.30;99.90;;;;;;4976058;28;20045;-68
2022/10/10 03:16:19;;;;;;;8.48;3.95;;;9.30;99.90;;;;;;4976013;28;20049;-68
2022/10/10 03:18:44;;;;;;;8.85;3.65;;;9.30;99.90;;;;;;4976259;28;20050;-68
2022/10/10 03:21:10;;;;;;;6.93;3.80;;;9.30;99.90;;;;;;4975969;28;20515;-68
2022/10/10 03:23:35;;;;;;;6.70;3.65;;;9.30;99.90;;;;;;4976854;28;20049;-69
2022/10/10 03:26:03;;;;;;;7.72;3.88;;;9.30;99.90;;;;;;4979730;28;20053;-68
2022/10/10 03:28:28;;;;;;;8.90;4.53;;;9.40;99.90;;;;;;4979517;28;20503;-68
2022/10/10 03:30:54;;;;;;;7.45;3.90;;;9.30;99.90;;;;;;4979643;28;20065;-69
2022/10/10 03:33:20;;;;;;;8.98;4.07;;;9.30;99.90;;;;;;4979835;28;20085;-69
2022/10/10 03:35:46;;;;;;;6.65;3.60;;;9.30;99.90;;;;;;4979771;28;20057;-68
2022/10/10 03:38:12;;;;;;;9.68;3.92;;;9.30;99.90;;;;;;4979441;28;20125;-68
2022/10/10 03:40:39;;;;;;;8.95;3.75;;;9.30;99.90;;;;;;4979457;28;20044;-68
2022/10/10 03:43:06;;;;;;;9.38;4.13;;;9.30;99.90;;;;;;4979385;28;20533;-69
2022/10/10 03:45:32;;;;;;;9.20;4.50;;;9.30;99.90;;;;;;4979604;28;20042;-69
2022/10/10 03:47:57;;;;;;;8.63;3.80;;;9.30;99.90;;;;;;4979495;28;20427;-69
2022/10/10 03:50:23;;;;;;;7.70;3.88;;;9.30;99.90;;;;;;4979213;28;20089;-69
2022/10/10 03:52:48;;;;;;;7.13;4.57;;;9.20;99.90;;;;;;4979545;28;20454;-69
2022/10/10 03:55:14;;;;;;;6.53;4.45;;;9.20;99.90;;;;;;4979207;28;20093;-69
2022/10/10 03:57:39;;;;;;;7.05;3.83;;;9.20;99.90;;;;;;4979260;28;20049;-68
2022/10/10 04:00:06;;;;;;;7.65;4.15;;;9.20;99.90;;;;;;4979100;28;20069;-68
2022/10/10 04:02:31;;;;;;;6.93;4.07;;;9.20;99.90;;;;;;4979006;28;20525;-68
2022/10/10 04:04:57;;;;;;;6.47;4.05;;;9.20;99.90;;;;;;4979028;28;20046;-68
2022/10/10 04:07:23;;;;;;;8.85;4.32;;;9.20;99.90;;;;;;4996323;28;20066;-68
2022/10/10 04:09:48;;;;;;;8.55;4.22;;;9.20;99.90;;;;;;4962795;28;20039;-68
2022/10/10 04:12:14;;;;;;;7.28;4.15;;;9.20;99.90;;;;;;4978843;28;20042;-68
2022/10/10 04:14:39;;;;;;;9.45;4.35;;;9.10;99.90;;;;;;4978860;28;20049;-68
2022/10/10 04:17:05;;;;;;;7.75;4.90;;;9.10;99.90;;;;;;4978613;28;20049;-68
2022/10/10 04:19:30;;;;;;;9.85;4.40;;;9.10;99.90;;;;;;4978806;28;20054;-68
2022/10/10 04:21:56;;;;;;;7.05;4.35;;;9.10;99.90;;;;;;4978990;28;20051;-68
2022/10/10 04:24:21;;;;;;;8.48;4.03;;;9.10;99.90;;;;;;4978921;28;20519;-68
2022/10/10 04:26:47;;;;;;;11.02;4.80;;;9.00;99.90;;;;;;4978592;28;20534;-68
2022/10/10 04:29:12;;;;;;;8.23;4.53;;;9.00;99.90;;;;;;4978510;28;20042;-68
2022/10/10 04:31:38;;;;;;;7.55;4.43;;;9.00;99.90;;;;;;4978527;28;20072;-68
2022/10/10 04:34:03;;;;;;;11.43;4.80;;;9.10;99.90;;;;;;4978096;28;20160;-68
2022/10/10 04:36:29;;;;;;;8.98;4.72;;;9.00;99.90;;;;;;4978721;28;20121;-68
2022/10/10 04:38:54;;;;;;;8.75;4.40;;;9.00;99.90;;;;;;4996604;28;20454;-68
2022/10/10 04:41:20;;;;;;;8.45;4.68;;;9.00;99.90;;;;;;4978382;28;20533;-69
2022/10/10 04:43:45;;;;;;;7.45;4.78;;;9.00;99.90;;;;;;4978326;28;20134;-69
2022/10/10 04:46:11;;;;;;;8.38;5.13;;;9.00;99.90;;;;;;4978539;28;20129;-69
2022/10/10 04:48:36;;;;;;;9.35;4.75;;;9.00;99.90;;;;;;4978095;28;20050;-69
2022/10/10 04:51:02;;;;;;;10.73;5.03;;;9.00;99.90;;;;;;4978206;28;20118;-69
2022/10/10 04:53:28;;;;;;;8.73;4.97;;;9.00;99.90;;;;;;4962066;28;20035;-69
2022/10/10 04:55:53;;;;;;;7.57;5.18;;;9.00;99.90;;;;;;4978077;28;20038;-69
2022/10/10 04:58:19;;;;;;;9.63;4.72;;;9.00;99.90;;;;;;4978244;28;20038;-69
2022/10/10 05:00:49;;;;;;;8.20;5.13;;;9.00;99.90;;;;;;4978012;28;20046;-69
2022/10/10 05:03:14;;;;;;;8.10;4.75;;;9.00;99.90;;;;;;4977949;28;20050;-68
2022/10/10 05:05:40;;;;;;;9.13;4.68;;;9.00;99.90;;;;;;4978233;28;20108;-68
2022/10/10 05:08:05;;;;;;;7.20;4.38;;;9.00;99.90;;;;;;4977787;28;20407;-68
2022/10/10 05:10:36;;;;;;;8.70;4.82;;;9.00;99.90;;;;;;4977723;28;20042;-68
2022/10/10 05:13:02;;;;;;;9.35;5.25;;;9.00;99.90;;;;;;4977819;28;20073;-68
2022/10/10 05:15:27;;;;;;;7.18;5.18;;;9.00;99.90;;;;;;4977631;28;20050;-68
2022/10/10 05:17:53;;;;;;;10.07;5.78;;;9.00;99.90;;;;;;4977505;28;20042;-68
2022/10/10 05:20:18;;;;;;;9.75;5.30;;;9.00;99.90;;;;;;4977572;28;20038;-68
2022/10/10 05:22:44;;;;;;;7.30;4.85;;;9.00;99.90;;;;;;4978297;28;20042;-68
2022/10/10 05:25:10;;;;;;;8.48;5.00;;;9.00;99.90;;;;;;4977765;28;20050;-69
2022/10/10 05:27:35;;;;;;;9.25;4.85;;;9.00;99.90;;;;;;4977427;28;20092;-69
2022/10/10 05:30:01;;;;;;;11.23;4.88;;;9.00;99.90;;;;;;4977368;28;20057;-69
2022/10/10 05:32:26;;;;;;;7.43;5.20;;;9.00;99.90;;;;;;4977664;28;20112;-69
2022/10/10 05:34:52;;;;;;;7.43;4.72;;;9.00;99.90;;;;;;4977394;28;20455;-69
2022/10/10 05:37:17;;;;;;;10.15;5.00;;;9.00;99.90;;;;;;4977560;28;20046;-69
2022/10/10 05:39:43;;;;;;;9.73;5.13;;;9.00;99.90;;;;;;4977301;28;20455;-68
2022/10/10 05:42:09;;;;;;;7.97;5.00;;;9.00;99.90;;;;;;4994599;28;20042;-68
2022/10/10 05:44:35;;;;;;;10.13;5.15;;;8.90;99.90;;;;;;4977451;28;20069;-68
2022/10/10 05:47:00;;;;;;;9.07;5.50;;;8.90;99.90;;;;;;4976364;28;20491;-68
2022/10/10 05:49:26;;;;;;;8.65;5.07;;;8.90;99.90;;;;;;4977191;28;20124;-68
2022/10/10 05:51:51;;;;;;;10.15;4.93;;;8.90;99.90;;;;;;4977325;28;20471;-68
2022/10/10 05:54:17;;;;;;;7.32;5.28;;;8.90;99.90;;;;;;4961183;28;20403;-68
2022/10/10 05:56:42;;;;;;;8.68;5.43;;;8.90;99.90;;;;;;4976968;28;20475;-68
2022/10/10 05:59:08;;;;;;;8.98;5.82;;;8.90;99.90;;;;;;4976915;28;20091;-68
2022/10/10 06:01:35;;;;;;;9.20;5.78;;;8.90;99.90;;;;;;4976866;28;20125;-68
2022/10/10 06:04:01;;;;;;;14.52;5.68;;;8.90;99.90;;;;;;4977143;28;20212;-68
2022/10/10 06:06:26;;;;;;;12.10;5.50;;;8.90;99.90;;;;;;4976822;28;20518;-69
2022/10/10 06:08:52;;;;;;;9.15;5.38;;;8.80;99.90;;;;;;4976625;28;20097;-69
2022/10/10 06:11:19;;;;;;;11.20;5.90;;;8.80;99.90;;;;;;4976680;28;20046;-68
2022/10/10 06:13:48;;;;;;;10.65;5.95;;;8.90;99.90;;;;;;4976638;28;20046;-68
2022/10/10 06:16:14;;;;;;;8.10;5.60;;;8.80;99.90;;;;;;4976966;28;20056;-69
2022/10/10 06:18:39;;;;;;;10.95;5.30;;;8.80;99.90;;;;;;4976669;28;20546;-68
2022/10/10 06:21:07;;;;;;;10.88;5.22;;;8.80;99.90;;;;;;4976585;28;20038;-68
2022/10/10 06:23:33;;;;;;;7.97;5.05;;;8.80;99.90;;;;;;4976583;28;20078;-68
2022/10/10 06:25:59;;;;;;;10.68;5.72;;;8.80;99.90;;;;;;4976497;28;20514;-68
2022/10/10 06:28:24;;;;;;;9.52;6.18;;;8.80;99.90;;;;;;4976348;28;20113;-68
2022/10/10 06:30:50;;;;;;;9.35;6.18;;;8.80;99.90;;;;;;4976511;28;20458;-68
2022/10/10 06:33:18;;;;;;;9.82;5.40;;;8.80;99.90;;;;;;4976421;28;20120;-68
2022/10/10 06:35:45;;;;;;;8.77;5.45;;;8.80;99.90;;;;;;4976457;28;20054;-68
2022/10/10 06:38:11;;;;;;;8.45;5.65;;;8.80;99.90;;;;;;4976360;28;20129;-68
2022/10/10 06:40:38;;;;;;;8.27;5.55;;;8.80;99.90;;;;;;4976431;28;20046;-68
2022/10/10 06:43:09;;;;;;;11.25;5.93;;;8.80;99.90;;;;;;4976413;28;20046;-68
2022/10/10 06:45:36;;;;;;;9.65;5.95;;;8.90;99.90;;;;;;4976364;28;20046;-68
2022/10/10 06:48:01;;;;;;;7.70;5.40;;;8.90;99.90;;;;;;4976286;28;20096;-68
2022/10/10 06:50:27;;;;;;;9.07;5.68;;;8.90;99.90;;;;;;4976302;28;20042;-68
2022/10/10 06:52:53;;;;;;;13.55;6.40;;;8.90;99.90;;;;;;4976273;28;20049;-68
2022/10/10 06:55:18;;;;;;;8.98;5.55;;;9.00;99.90;;;;;;4976231;28;20161;-69
2022/10/10 06:57:44;;;;;;;10.80;5.90;;;9.00;99.90;;;;;;4977368;28;20104;-68
2022/10/10 07:00:11;;;;;;;12.65;6.38;;;9.00;99.90;;;;;;4980239;28;20132;-68
2022/10/10 07:02:39;;;;;;;15.93;6.13;;;9.10;99.90;;;;;;4980265;28;20042;-68
2022/10/10 07:05:10;;;;;;;11.68;5.80;;;9.20;99.90;;;;;;4980292;28;20053;-68
2022/10/10 07:07:37;;;;;;;15.40;6.43;;;9.20;99.90;;;;;;4980101;28;20526;-68
2022/10/10 07:10:03;;;;;;;7.35;5.63;;;9.30;99.90;;;;;;4980017;28;20060;-68
2022/10/10 07:12:29;;;;;;;8.95;5.90;;;9.30;99.90;;;;;;4980047;28;20035;-68
2022/10/10 07:14:54;;;;;;;9.15;5.80;;;9.40;99.90;;;;;;4997371;28;20125;-68
2022/10/10 07:17:20;;;;;;;9.52;6.10;;;9.40;99.90;;;;;;4980000;28;20042;-68
2022/10/10 07:19:46;;;;;;;11.27;5.85;;;9.50;99.90;;;;;;4979832;28;20548;-68
2022/10/10 07:22:12;;;;;;;9.65;5.75;;;9.50;99.90;;;;;;4979936;28;20042;-68
2022/10/10 07:24:37;;;;;;;12.13;5.93;;;9.60;99.90;;;;;;4979960;28;20046;-68
2022/10/10 07:27:03;;;;;;;9.77;6.18;;;9.60;99.90;;;;;;4979738;28;20042;-68
2022/10/10 07:29:29;;;;;;;12.15;6.18;;;9.70;99.90;;;;;;4963619;28;20121;-68
2022/10/10 07:31:55;;;;;;;12.27;6.60;;;9.70;99.90;;;;;;4979591;28;20078;-68
2022/10/10 07:34:21;;;;;;;12.77;6.10;;;9.70;99.90;;;;;;4979582;28;20050;-69
2022/10/10 07:36:49;;;;;;;10.23;6.00;;;9.80;99.90;;;;;;4997451;28;20034;-69
2022/10/10 07:39:18;;;;;;;10.27;6.05;;;9.80;99.90;;;;;;4979748;28;20050;-69
2022/10/10 07:41:44;;;;;;;10.40;6.70;;;9.80;99.90;;;;;;4979422;28;20121;-69
2022/10/10 07:44:09;;;;;;;10.82;6.53;;;9.80;99.90;;;;;;4979536;28;20173;-69
2022/10/10 07:46:35;;;;;;;11.15;6.30;;;9.90;99.90;;;;;;4979553;28;20112;-70
2022/10/10 07:49:00;;;;;;;11.77;6.60;;;9.90;99.90;;;;;;4979214;28;20557;-69
2022/10/10 07:51:26;;;;;;;11.90;6.22;;;10.00;99.90;;;;;;4979545;28;20080;-69
2022/10/10 07:53:52;;;;;;;13.00;6.60;;;10.00;99.90;;;;;;4979274;28;20388;-69
2022/10/10 07:56:17;;;;;;;11.68;6.60;;;10.10;99.90;;;;;;4979426;28;20039;-69
2022/10/10 07:58:43;;;;;;;10.07;6.38;;;10.10;99.90;;;;;;4979133;28;20525;-70
2022/10/10 08:01:11;;;;;;;13.88;6.55;;;10.20;99.90;;;;;;4979124;28;20073;-69
2022/10/10 08:03:37;;;;;;;9.05;6.55;;;10.30;99.90;;;;;;4979032;28;20057;-69
2022/10/10 08:06:05;;;;;;;14.80;6.55;;;10.40;99.90;;;;;;4996445;28;20070;-69
2022/10/10 08:08:32;;;;;;;9.32;6.57;;;10.40;99.90;;;;;;4979037;28;20113;-69
2022/10/10 08:10:57;;;;;;;10.57;6.63;;;10.50;99.90;;;;;;4995622;28;20050;-69
2022/10/10 08:13:24;;;;;;;11.48;6.22;;;10.60;99.90;;;;;;4978902;28;20121;-69
2022/10/10 08:15:50;;;;;;;10.88;6.68;;;10.70;99.90;;;;;;4978803;28;20088;-69
2022/10/10 08:18:16;;;;;;;9.50;6.20;;;10.80;99.90;;;;;;4978587;28;20487;-69
2022/10/10 08:20:42;;;;;;;8.20;5.90;;;11.00;99.90;;;;;;4979026;28;20042;-69
2022/10/10 08:23:07;;;;;;;9.50;5.45;;;11.60;99.90;;;;;;4978987;28;20049;-69
2022/10/10 08:25:33;;;;;;;8.23;5.82;;;12.70;99.90;;;;;;4978960;28;20041;-69
2022/10/10 08:27:58;;;;;;;8.82;5.70;;;13.50;99.90;;;;;;4978500;28;20517;-69
2022/10/10 08:30:24;;;;;;;8.27;5.82;;;14.50;99.90;;;;;;4978518;28;20083;-69
2022/10/10 08:32:50;;;;;;;9.25;5.55;;;15.40;99.90;;;;;;4978556;28;20043;-69
2022/10/10 08:35:16;;;;;;;11.95;5.40;;;16.20;99.90;;;;;;4978421;28;20038;-70
2022/10/10 08:37:41;;;;;;;9.57;5.38;;;17.20;99.90;;;;;;4978351;28;20046;-70
2022/10/10 08:40:09;;;;;;;9.73;5.03;;;17.90;99.90;;;;;;4978653;28;20045;-70
2022/10/10 08:42:42;;;;;;;7.57;4.90;;;18.70;99.00;;;;;;4978417;28;20057;-70
2022/10/10 08:45:16;;;;;;;9.20;4.75;;;19.30;95.20;;;;;;4978298;28;20168;-70
2022/10/10 08:47:48;;;;;;;11.60;4.65;;;19.80;91.80;;;;;;4962108;28;20046;-70
2022/10/10 08:50:34;;;;;;;17.13;4.80;;;20.30;88.80;;;;;;4978121;28;20406;-70
2022/10/10 08:53:14;;;;;;;8.85;5.00;;;20.70;84.00;;;;;;4978191;28;20121;-70
2022/10/10 08:55:42;;;;;;;7.97;4.93;;;21.00;72.70;;;;;;4978175;28;20038;-70
2022/10/10 08:58:22;;;;;;;8.80;4.90;;;21.20;77.20;;;;;;4977979;28;20511;-70
2022/10/10 09:00:57;;;;;;;8.30;4.88;;;21.00;76.70;;;;;;4978043;28;20514;-70
2022/10/10 09:03:44;;;;;;;7.18;4.68;;;20.90;77.20;;;;;;4978040;28;20073;-70
2022/10/10 09:06:12;;;;;;;8.27;4.57;;;20.80;77.20;;;;;;4961841;28;20525;-70
2022/10/10 09:09:16;;;;;;;9.98;5.15;;;20.30;80.30;;;;;;4977759;28;20081;-70
2022/10/10 09:11:44;;;;;;;9.70;4.70;;;20.00;84.60;;;;;;4984704;28;20130;-70
2022/10/10 09:14:30;;;;;;;9.63;4.72;;;19.80;86.40;;;;;;4977779;28;20121;-70
2022/10/10 09:17:27;;;;;;;8.68;4.93;;;20.10;85.30;;;;;;4977602;28;20074;-70
2022/10/10 09:20:06;;;;;;;9.40;4.90;;;20.40;83.60;;;;;;4977674;28;20052;-70
2022/10/10 09:22:59;;;;;;;9.57;5.03;;;20.50;80.40;;;;;;4976539;28;20057;-70
2022/10/10 09:25:57;;;;;;;9.18;4.95;;;20.70;81.20;;;;;;4995100;28;20049;-70
2022/10/10 09:28:32;;;;;;;9.70;4.85;;;21.50;79.40;;;;;;4900508;29;20202;-70
2022/10/10 09:31:00;;;;;;;6.60;4.93;;;22.00;72.70;;;;;;4900290;29;20068;-70
2022/10/10 09:33:37;;;;;;;11.90;5.25;;;22.10;71.90;;;;;;4900251;29;20596;-70
2022/10/10 09:36:08;;;;;;;7.65;4.90;;;22.10;72.00;;;;;;4900174;29;20048;-70
2022/10/10 09:38:46;;;;;;;10.95;5.10;;;22.30;70.40;;;;;;4900059;29;20056;-70
2022/10/10 09:41:33;;;;;;;8.75;4.30;;;22.50;70.20;;;;;;4900362;29;20047;-70
2022/10/10 09:44:03;;;;;;;7.68;4.53;;;22.70;69.10;;;;;;4900238;29;20116;-70
2022/10/10 09:46:29;;;;;;;7.65;5.30;;;22.80;68.20;;;;;;4899887;29;20044;-70
2022/10/10 09:48:56;;;;;;;9.32;4.60;;;22.50;67.60;;;;;;4899982;29;20054;-70
2022/10/10 09:51:22;;;;;;;9.25;4.72;;;22.10;69.20;;;;;;4899864;29;20056;-70
2022/10/10 09:53:48;;;;;;;8.25;4.95;;;21.80;71.50;;;;;;4899830;29;20151;-70
2022/10/10 09:56:23;;;;;;;7.13;4.43;;;21.40;73.30;;;;;;4899821;29;20043;-70
2022/10/10 09:58:51;;;;;;;7.60;4.70;;;20.90;77.10;;;;;;4900054;29;20048;-70
2022/10/10 10:01:25;;;;;;;8.00;5.07;;;20.40;80.90;;;;;;4899723;29;20044;-70
2022/10/10 10:04:17;;;;;;;7.63;4.85;;;20.00;86.50;;;;;;4899872;28;20508;-70
2022/10/10 10:06:50;;;;;;;8.80;5.18;;;19.50;91.10;;;;;;4977077;28;20089;-70
2022/10/10 10:09:21;;;;;;;11.40;4.82;;;19.00;94.60;;;;;;4976745;28;20046;-69
2022/10/10 10:11:53;;;;;;;9.52;5.03;;;18.70;97.20;;;;;;4977010;28;20050;-69
2022/10/10 10:14:34;;;;;;;10.32;5.20;;;18.40;97.90;;;;;;4976863;28;20101;-69
2022/10/10 10:17:12;;;;;;;9.65;5.10;;;18.50;99.90;;;;;;4960525;28;20069;-69
2022/10/10 10:19:43;;;;;;;13.02;6.25;;;18.70;99.60;;;;;;4976735;28;20050;-69
2022/10/10 10:22:32;;;;;;;8.48;5.07;;;19.20;98.10;;;;;;4976570;28;20050;-69
2022/10/10 10:25:18;;;;;;;10.90;5.60;;;19.50;97.20;;;;;;4976867;28;20519;-69
2022/10/10 10:27:44;;;;;;;11.02;5.40;;;19.40;96.50;;;;;;4976679;28;20054;-70
2022/10/10 10:30:23;;;;;;;9.68;4.75;;;19.30;97.80;;;;;;4976616;28;20513;-70
2022/10/10 10:32:56;;;;;;;10.95;5.03;;;19.20;98.60;;;;;;4976074;28;20510;-70
2022/10/10 10:35:35;;;;;;;8.40;5.05;;;18.90;99.40;;;;;;4976804;28;20046;-69
2022/10/10 10:38:16;;;;;;;10.30;5.00;;;18.90;99.90;;;;;;4976380;28;20049;-69
2022/10/10 10:41:01;;;;;;;11.90;5.10;;;19.20;99.90;;;;;;4976387;28;20054;-69
2022/10/10 10:44:23;;;;;;;14.55;4.68;;;19.80;99.60;;;;;;4976397;28;20046;-69
2022/10/10 10:46:54;;;;;;;9.18;4.85;;;21.10;96.70;;;;;;4899200;29;20066;-70
2022/10/10 10:49:27;;;;;;;9.27;5.07;;;21.90;89.40;;;;;;4899231;29;20055;-70
2022/10/10 10:52:05;;;;;;;12.13;4.93;;;21.60;85.50;;;;;;4899145;29;20056;-69
2022/10/10 10:54:59;;;;;;;11.02;4.65;;;21.10;90.90;;;;;;4899696;29;20127;-69
2022/10/10 10:57:46;;;;;;;9.43;4.90;;;20.60;92.70;;;;;;4899224;29;20070;-70
2022/10/10 11:00:18;;;;;;;8.95;4.75;;;20.10;95.30;;;;;;4899227;29;20553;-69
2022/10/10 11:03:16;;;;;;;8.65;4.78;;;19.50;97.90;;;;;;4899062;29;20418;-70
2022/10/10 11:05:46;;;;;;;10.75;5.38;;;19.00;99.80;;;;;;4883306;29;20458;-69
2022/10/10 11:08:34;;;;;;;10.55;5.00;;;18.50;99.90;;;;;;4898852;29;20123;-70
2022/10/10 11:11:09;;;;;;;11.40;5.10;;;18.10;99.90;;;;;;4898924;29;20509;-70
2022/10/10 11:13:52;;;;;;;8.68;5.00;;;17.80;99.90;;;;;;4899125;29;20048;-70
2022/10/10 11:16:24;;;;;;;7.50;4.90;;;17.50;99.90;;;;;;4898792;29;20059;-69
2022/10/10 11:19:13;;;;;;;8.82;4.60;;;17.20;99.90;;;;;;4883295;29;20076;-69
2022/10/10 11:22:04;;;;;;;10.88;5.55;;;17.00;99.90;;;;;;4926410;28;20503;-69
2022/10/10 11:24:41;;;;;;;9.57;5.10;;;16.80;99.90;;;;;;4976007;28;20044;-69
2022/10/10 11:27:16;;;;;;;12.90;5.20;;;16.60;99.90;;;;;;4975994;28;20081;-70
2022/10/10 11:30:05;;;;;;;10.07;5.15;;;16.40;99.90;;;;;;4993330;28;20483;-69
2022/10/10 11:32:47;;;;;;;9.52;5.32;;;16.30;99.90;;;;;;4975877;28;20043;-69
2022/10/10 11:35:25;;;;;;;10.98;5.00;;;16.20;99.90;;;;;;4975918;28;20038;-70
2022/10/10 11:38:02;;;;;;;11.88;5.60;;;16.10;99.90;;;;;;4975929;28;20081;-70
2022/10/10 11:40:35;;;;;;;11.57;5.63;;;16.00;99.90;;;;;;4975955;28;20050;-70
2022/10/10 11:43:17;;;;;;;13.82;6.35;;;15.80;99.90;;;;;;4975887;28;20039;-70
2022/10/10 11:45:46;;;;;;;11.90;6.25;;;15.70;99.90;;;;;;4978239;28;20093;-68
2022/10/10 11:48:31;;;;;;;10.30;6.32;;;15.60;99.90;;;;;;4996810;28;20162;-69
2022/10/10 11:51:04;;;;;;;10.45;6.43;;;15.50;99.90;;;;;;4979293;28;20042;-69
2022/10/10 11:53:43;;;;;;;11.98;6.78;;;15.40;99.90;;;;;;4979582;28;20042;-69
2022/10/10 11:56:29;;;;;;;13.75;6.15;;;15.40;99.90;;;;;;4979184;28;20058;-69
2022/10/10 11:59:01;;;;;;;13.70;6.35;;;15.40;99.90;;;;;;4979442;28;20070;-69
2022/10/10 12:01:32;;;;;;;13.57;6.25;;;15.30;99.90;;;;;;4979167;28;20069;-69
2022/10/10 12:03:58;;;;;;;11.07;6.25;;;15.40;99.90;;;;;;4979165;28;20035;-69
2022/10/10 12:06:53;;;;;;;8.85;5.93;;;15.30;99.90;;;;;;4963646;28;20101;-69
2022/10/10 12:09:26;;;;;;;13.48;6.38;;;15.30;99.90;;;;;;4979072;28;20042;-69
2022/10/10 12:12:24;;;;;;;15.35;6.90;;;15.30;99.90;;;;;;4996741;28;20046;-69
2022/10/10 12:14:53;;;;;;;15.38;6.32;;;15.30;99.90;;;;;;4973962;28;20522;-69
2022/10/10 12:17:30;;;;;;;13.52;6.00;;;15.30;99.90;;;;;;4962779;28;20490;-69
2022/10/10 12:20:09;;;;;;;13.65;6.18;;;15.30;99.90;;;;;;4978816;28;20052;-69
2022/10/10 12:22:34;;;;;;;18.00;6.32;;;15.30;99.90;;;;;;4978836;28;20414;-69
2022/10/10 12:25:09;;;;;;;12.38;5.93;;;15.20;99.90;;;;;;4978645;28;20104;-69
2022/10/10 12:27:48;;;;;;;14.02;6.53;;;15.20;99.90;;;;;;4978624;28;20414;-69
2022/10/10 12:30:21;;;;;;;13.63;5.85;;;15.20;99.90;;;;;;4978593;28;20518;-69
2022/10/10 12:32:49;;;;;;;14.80;6.57;;;15.20;99.90;;;;;;4978615;28;20047;-69
2022/10/10 12:35:34;;;;;;;12.50;7.05;;;15.10;99.90;;;;;;4978576;28;20057;-69
2022/10/10 12:38:20;;;;;;;10.52;6.05;;;15.10;99.90;;;;;;4978403;28;20404;-68
2022/10/10 12:41:04;;;;;;;12.13;7.47;;;15.10;99.90;;;;;;4996198;28;20058;-68
2022/10/10 12:43:50;;;;;;;13.15;7.28;;;15.00;99.90;;;;;;4978424;28;20199;-69
2022/10/10 12:46:26;;;;;;;13.98;7.45;;;15.00;99.90;;;;;;4978262;28;20395;-69
2022/10/10 12:49:04;;;;;;;14.73;6.95;;;14.90;99.90;;;;;;4978187;28;20046;-69
2022/10/10 12:51:33;;;;;;;13.02;7.47;;;14.80;99.90;;;;;;4978456;28;20049;-69
2022/10/10 12:54:02;;;;;;;14.52;7.75;;;14.80;99.90;;;;;;4978198;28;20042;-69
2022/10/10 12:56:42;;;;;;;17.73;8.05;;;14.80;99.90;;;;;;4977867;28;20046;-69
2022/10/10 12:59:21;;;;;;;14.48;7.70;;;14.80;99.90;;;;;;4978096;28;20128;-69
2022/10/10 13:01:55;;;;;;;11.75;7.63;;;14.70;99.90;;;;;;4978002;28;20419;-69
2022/10/10 13:04:23;;;;;;;21.00;8.88;;;14.70;99.90;;;;;;4978194;28;20189;-69
2022/10/10 13:06:54;;;;;;;13.40;8.25;;;14.70;99.90;;;;;;4977911;28;20531;-69
2022/10/10 13:09:22;;;;;;;19.17;8.50;;;14.70;99.90;;;;;;4978061;28;20038;-69